sensor_id;sensor_type;location;lat;lon;timestamp;P1;durP1;ratioP1;P2;durP2;ratioP2
40286;SDS011;25998;46.604;13.610;2023-02-18T00:00:59;6.50;;;4.70;;
40286;SDS011;25998;46.604;13.610;2023-02-18T00:04:10;7.68;;;4.57;;
40286;SDS011;25998;46.604;13.610;2023-02-18T00:07:21;8.27;;;4.90;;
40286;SDS011;25998;46.604;13.610;2023-02-18T00:10:32;6.38;;;5.18;;
40286;SDS011;25998;46.604;13.610;2023-02-18T00:13:42;7.97;;;5.28;;
40286;SDS011;25998;46.604;13.610;2023-02-18T00:16:58;6.20;;;4.68;;
40286;SDS011;25998;46.604;13.610;2023-02-18T00:20:09;7.35;;;5.43;;
40286;SDS011;25998;46.604;13.610;2023-02-18T00:23:21;7.28;;;4.90;;
40286;SDS011;25998;46.604;13.610;2023-02-18T00:26:34;7.30;;;4.57;;
40286;SDS011;25998;46.604;13.610;2023-02-18T00:29:50;9.38;;;5.38;;
40286;SDS011;25998;46.604;13.610;2023-02-18T00:33:03;6.82;;;5.13;;
40286;SDS011;25998;46.604;13.610;2023-02-18T00:36:19;6.03;;;4.93;;
40286;SDS011;25998;46.604;13.610;2023-02-18T00:39:31;6.75;;;4.72;;
40286;SDS011;25998;46.604;13.610;2023-02-18T00:42:42;9.85;;;5.78;;
40286;SDS011;25998;46.604;13.610;2023-02-18T00:45:55;7.00;;;4.68;;
40286;SDS011;25998;46.604;13.610;2023-02-18T00:49:06;4.97;;;4.10;;
40286;SDS011;25998;46.604;13.610;2023-02-18T00:52:18;8.00;;;4.70;;
40286;SDS011;25998;46.604;13.610;2023-02-18T00:55:31;6.18;;;4.43;;
40286;SDS011;25998;46.604;13.610;2023-02-18T00:58:42;6.28;;;4.45;;
40286;SDS011;25998;46.604;13.610;2023-02-18T01:01:56;7.47;;;4.60;;
40286;SDS011;25998;46.604;13.610;2023-02-18T01:05:07;6.07;;;4.28;;
40286;SDS011;25998;46.604;13.610;2023-02-18T01:08:19;5.57;;;4.40;;
40286;SDS011;25998;46.604;13.610;2023-02-18T01:11:32;6.82;;;4.47;;
40286;SDS011;25998;46.604;13.610;2023-02-18T01:14:43;9.25;;;4.80;;
40286;SDS011;25998;46.604;13.610;2023-02-18T01:17:54;6.15;;;4.38;;
40286;SDS011;25998;46.604;13.610;2023-02-18T01:21:06;6.93;;;4.05;;
40286;SDS011;25998;46.604;13.610;2023-02-18T01:24:17;6.15;;;4.60;;
40286;SDS011;25998;46.604;13.610;2023-02-18T01:27:28;6.55;;;4.32;;
40286;SDS011;25998;46.604;13.610;2023-02-18T01:30:41;7.65;;;4.40;;
40286;SDS011;25998;46.604;13.610;2023-02-18T01:33:52;9.25;;;5.22;;
40286;SDS011;25998;46.604;13.610;2023-02-18T01:37:03;7.38;;;4.53;;
40286;SDS011;25998;46.604;13.610;2023-02-18T01:40:16;6.32;;;4.25;;
40286;SDS011;25998;46.604;13.610;2023-02-18T01:43:32;6.80;;;4.68;;
40286;SDS011;25998;46.604;13.610;2023-02-18T01:46:44;7.65;;;4.65;;
40286;SDS011;25998;46.604;13.610;2023-02-18T01:49:55;8.20;;;4.82;;
40286;SDS011;25998;46.604;13.610;2023-02-18T01:53:06;5.72;;;3.92;;
40286;SDS011;25998;46.604;13.610;2023-02-18T01:56:19;7.32;;;4.10;;
40286;SDS011;25998;46.604;13.610;2023-02-18T01:59:37;7.75;;;4.32;;
40286;SDS011;25998;46.604;13.610;2023-02-18T02:02:51;5.35;;;3.85;;
40286;SDS011;25998;46.604;13.610;2023-02-18T02:06:05;5.78;;;4.05;;
40286;SDS011;25998;46.604;13.610;2023-02-18T02:09:21;6.03;;;4.10;;
40286;SDS011;25998;46.604;13.610;2023-02-18T02:13:19;5.32;;;3.83;;
40286;SDS011;25998;46.604;13.610;2023-02-18T02:16:20;6.15;;;4.68;;
40286;SDS011;25998;46.604;13.610;2023-02-18T02:19:43;5.82;;;3.55;;
40286;SDS011;25998;46.604;13.610;2023-02-18T02:26:27;6.05;;;3.38;;
40286;SDS011;25998;46.604;13.610;2023-02-18T02:30:11;6.63;;;4.13;;
40286;SDS011;25998;46.604;13.610;2023-02-18T02:37:26;7.15;;;3.63;;
40286;SDS011;25998;46.604;13.610;2023-02-18T02:40:51;5.25;;;3.70;;
40286;SDS011;25998;46.604;13.610;2023-02-18T02:51:06;4.60;;;3.53;;
40286;SDS011;25998;46.604;13.610;2023-02-18T02:54:39;6.03;;;3.72;;
40286;SDS011;25998;46.604;13.610;2023-02-18T02:57:51;6.72;;;4.28;;
40286;SDS011;25998;46.604;13.610;2023-02-18T03:11:28;5.30;;;3.55;;
40286;SDS011;25998;46.604;13.610;2023-02-18T03:25:09;5.43;;;3.40;;
40286;SDS011;25998;46.604;13.610;2023-02-18T03:28:21;5.50;;;4.07;;
40286;SDS011;25998;46.604;13.610;2023-02-18T03:31:35;5.63;;;3.53;;
40286;SDS011;25998;46.604;13.610;2023-02-18T03:34:50;4.60;;;2.85;;
40286;SDS011;25998;46.604;13.610;2023-02-18T03:41:53;5.95;;;3.70;;
40286;SDS011;25998;46.604;13.610;2023-02-18T03:45:04;5.88;;;3.20;;
40286;SDS011;25998;46.604;13.610;2023-02-18T03:48:15;4.95;;;2.88;;
40286;SDS011;25998;46.604;13.610;2023-02-18T03:51:26;3.90;;;2.92;;
40286;SDS011;25998;46.604;13.610;2023-02-18T03:54:38;6.13;;;3.05;;
40286;SDS011;25998;46.604;13.610;2023-02-18T03:57:48;5.35;;;3.53;;
40286;SDS011;25998;46.604;13.610;2023-02-18T04:01:00;6.43;;;3.08;;
40286;SDS011;25998;46.604;13.610;2023-02-18T04:04:11;4.82;;;2.80;;
40286;SDS011;25998;46.604;13.610;2023-02-18T04:07:21;4.55;;;3.00;;
40286;SDS011;25998;46.604;13.610;2023-02-18T04:10:32;4.28;;;2.70;;
40286;SDS011;25998;46.604;13.610;2023-02-18T04:13:43;5.82;;;2.90;;
40286;SDS011;25998;46.604;13.610;2023-02-18T04:16:54;4.63;;;2.60;;
40286;SDS011;25998;46.604;13.610;2023-02-18T04:20:07;5.00;;;2.83;;
40286;SDS011;25998;46.604;13.610;2023-02-18T04:23:18;4.18;;;2.58;;
40286;SDS011;25998;46.604;13.610;2023-02-18T04:26:30;5.25;;;2.60;;
40286;SDS011;25998;46.604;13.610;2023-02-18T04:29:40;4.80;;;2.90;;
40286;SDS011;25998;46.604;13.610;2023-02-18T04:32:51;3.67;;;2.65;;
40286;SDS011;25998;46.604;13.610;2023-02-18T04:36:03;4.78;;;2.60;;
40286;SDS011;25998;46.604;13.610;2023-02-18T04:39:17;5.00;;;3.25;;
40286;SDS011;25998;46.604;13.610;2023-02-18T04:42:28;3.35;;;2.58;;
40286;SDS011;25998;46.604;13.610;2023-02-18T04:45:39;6.63;;;2.60;;
40286;SDS011;25998;46.604;13.610;2023-02-18T04:48:50;4.60;;;2.30;;
40286;SDS011;25998;46.604;13.610;2023-02-18T04:52:01;3.42;;;2.33;;
40286;SDS011;25998;46.604;13.610;2023-02-18T04:55:12;4.20;;;2.22;;
40286;SDS011;25998;46.604;13.610;2023-02-18T04:58:23;4.72;;;2.55;;
40286;SDS011;25998;46.604;13.610;2023-02-18T05:01:34;3.63;;;2.70;;
40286;SDS011;25998;46.604;13.610;2023-02-18T05:04:45;3.58;;;2.50;;
40286;SDS011;25998;46.604;13.610;2023-02-18T05:07:56;3.33;;;2.30;;
40286;SDS011;25998;46.604;13.610;2023-02-18T05:11:07;4.80;;;2.45;;
40286;SDS011;25998;46.604;13.610;2023-02-18T05:14:18;3.47;;;2.30;;
40286;SDS011;25998;46.604;13.610;2023-02-18T05:17:32;4.40;;;3.03;;
40286;SDS011;25998;46.604;13.610;2023-02-18T05:20:43;6.10;;;2.30;;
40286;SDS011;25998;46.604;13.610;2023-02-18T05:23:54;3.55;;;2.30;;
40286;SDS011;25998;46.604;13.610;2023-02-18T05:27:05;4.47;;;2.70;;
40286;SDS011;25998;46.604;13.610;2023-02-18T05:30:16;3.90;;;2.50;;
40286;SDS011;25998;46.604;13.610;2023-02-18T05:33:27;3.35;;;2.30;;
40286;SDS011;25998;46.604;13.610;2023-02-18T05:36:38;2.90;;;2.15;;
40286;SDS011;25998;46.604;13.610;2023-02-18T05:39:51;4.43;;;2.47;;
40286;SDS011;25998;46.604;13.610;2023-02-18T05:43:02;4.60;;;2.53;;
40286;SDS011;25998;46.604;13.610;2023-02-18T05:46:13;4.43;;;2.70;;
40286;SDS011;25998;46.604;13.610;2023-02-18T05:49:24;3.83;;;2.30;;
40286;SDS011;25998;46.604;13.610;2023-02-18T05:52:35;4.03;;;2.55;;
40286;SDS011;25998;46.604;13.610;2023-02-18T05:55:46;3.95;;;2.40;;
40286;SDS011;25998;46.604;13.610;2023-02-18T05:58:59;3.60;;;2.22;;
40286;SDS011;25998;46.604;13.610;2023-02-18T06:02:10;3.92;;;2.50;;
40286;SDS011;25998;46.604;13.610;2023-02-18T06:05:21;4.85;;;3.40;;
40286;SDS011;25998;46.604;13.610;2023-02-18T06:08:32;3.92;;;2.83;;
40286;SDS011;25998;46.604;13.610;2023-02-18T06:11:45;4.50;;;2.92;;
40286;SDS011;25998;46.604;13.610;2023-02-18T06:14:59;4.80;;;2.90;;
40286;SDS011;25998;46.604;13.610;2023-02-18T06:18:09;5.88;;;3.33;;
40286;SDS011;25998;46.604;13.610;2023-02-18T06:21:23;5.05;;;3.15;;
40286;SDS011;25998;46.604;13.610;2023-02-18T06:24:34;5.57;;;2.83;;
40286;SDS011;25998;46.604;13.610;2023-02-18T06:27:44;5.28;;;2.92;;
40286;SDS011;25998;46.604;13.610;2023-02-18T06:30:58;4.25;;;2.58;;
40286;SDS011;25998;46.604;13.610;2023-02-18T06:34:09;3.97;;;2.70;;
40286;SDS011;25998;46.604;13.610;2023-02-18T06:37:20;3.47;;;2.38;;
40286;SDS011;25998;46.604;13.610;2023-02-18T06:40:31;4.72;;;2.70;;
40286;SDS011;25998;46.604;13.610;2023-02-18T06:43:41;3.97;;;2.63;;
40286;SDS011;25998;46.604;13.610;2023-02-18T06:46:52;4.40;;;2.45;;
40286;SDS011;25998;46.604;13.610;2023-02-18T06:50:03;4.43;;;2.25;;
40286;SDS011;25998;46.604;13.610;2023-02-18T06:53:15;6.28;;;2.47;;
40286;SDS011;25998;46.604;13.610;2023-02-18T06:56:28;5.82;;;2.83;;
40286;SDS011;25998;46.604;13.610;2023-02-18T06:59:39;4.60;;;2.60;;
40286;SDS011;25998;46.604;13.610;2023-02-18T07:02:50;3.45;;;2.17;;
40286;SDS011;25998;46.604;13.610;2023-02-18T07:06:01;4.18;;;2.40;;
40286;SDS011;25998;46.604;13.610;2023-02-18T07:09:12;5.47;;;2.33;;
40286;SDS011;25998;46.604;13.610;2023-02-18T07:12:23;3.53;;;2.10;;
40286;SDS011;25998;46.604;13.610;2023-02-18T07:15:33;4.13;;;2.75;;
40286;SDS011;25998;46.604;13.610;2023-02-18T07:18:52;4.25;;;2.58;;
40286;SDS011;25998;46.604;13.610;2023-02-18T07:22:06;5.85;;;3.30;;
40286;SDS011;25998;46.604;13.610;2023-02-18T07:25:17;8.82;;;4.45;;
40286;SDS011;25998;46.604;13.610;2023-02-18T07:28:28;6.78;;;4.57;;
40286;SDS011;25998;46.604;13.610;2023-02-18T07:31:39;7.50;;;4.75;;
40286;SDS011;25998;46.604;13.610;2023-02-18T07:34:50;6.18;;;3.97;;
40286;SDS011;25998;46.604;13.610;2023-02-18T07:38:02;5.60;;;3.28;;
40286;SDS011;25998;46.604;13.610;2023-02-18T07:41:16;7.80;;;4.45;;
40286;SDS011;25998;46.604;13.610;2023-02-18T07:44:31;6.82;;;3.70;;
40286;SDS011;25998;46.604;13.610;2023-02-18T07:47:42;5.75;;;3.90;;
40286;SDS011;25998;46.604;13.610;2023-02-18T07:50:54;7.32;;;4.53;;
40286;SDS011;25998;46.604;13.610;2023-02-18T07:54:05;6.70;;;4.38;;
40286;SDS011;25998;46.604;13.610;2023-02-18T07:57:16;5.70;;;3.80;;
40286;SDS011;25998;46.604;13.610;2023-02-18T08:00:26;8.18;;;4.55;;
40286;SDS011;25998;46.604;13.610;2023-02-18T08:03:37;6.53;;;3.90;;
40286;SDS011;25998;46.604;13.610;2023-02-18T08:06:48;8.50;;;4.30;;
40286;SDS011;25998;46.604;13.610;2023-02-18T08:09:59;6.03;;;3.47;;
40286;SDS011;25998;46.604;13.610;2023-02-18T08:13:13;7.97;;;4.72;;
40286;SDS011;25998;46.604;13.610;2023-02-18T08:16:24;10.38;;;6.43;;
40286;SDS011;25998;46.604;13.610;2023-02-18T08:19:38;10.95;;;5.65;;
40286;SDS011;25998;46.604;13.610;2023-02-18T08:22:49;13.55;;;7.50;;
40286;SDS011;25998;46.604;13.610;2023-02-18T08:26:00;11.52;;;7.40;;
40286;SDS011;25998;46.604;13.610;2023-02-18T08:29:11;13.25;;;8.60;;
40286;SDS011;25998;46.604;13.610;2023-02-18T08:32:25;13.30;;;8.70;;
40286;SDS011;25998;46.604;13.610;2023-02-18T08:35:37;16.20;;;9.63;;
40286;SDS011;25998;46.604;13.610;2023-02-18T08:38:49;15.95;;;9.00;;
40286;SDS011;25998;46.604;13.610;2023-02-18T08:42:00;12.50;;;7.97;;
40286;SDS011;25998;46.604;13.610;2023-02-18T08:45:11;12.63;;;8.00;;
40286;SDS011;25998;46.604;13.610;2023-02-18T08:48:22;12.02;;;7.43;;
40286;SDS011;25998;46.604;13.610;2023-02-18T08:51:33;10.60;;;6.72;;
40286;SDS011;25998;46.604;13.610;2023-02-18T08:54:44;10.63;;;6.68;;
40286;SDS011;25998;46.604;13.610;2023-02-18T08:57:57;8.93;;;5.88;;
40286;SDS011;25998;46.604;13.610;2023-02-18T09:01:08;8.48;;;5.47;;
40286;SDS011;25998;46.604;13.610;2023-02-18T09:04:20;9.57;;;6.13;;
40286;SDS011;25998;46.604;13.610;2023-02-18T09:07:32;8.70;;;5.60;;
40286;SDS011;25998;46.604;13.610;2023-02-18T09:10:43;8.68;;;5.32;;
40286;SDS011;25998;46.604;13.610;2023-02-18T09:13:54;51.22;;;12.73;;
40286;SDS011;25998;46.604;13.610;2023-02-18T09:17:04;15.50;;;9.88;;
40286;SDS011;25998;46.604;13.610;2023-02-18T09:20:17;15.30;;;9.27;;
40286;SDS011;25998;46.604;13.610;2023-02-18T09:23:28;16.00;;;9.52;;
40286;SDS011;25998;46.604;13.610;2023-02-18T09:26:41;19.85;;;10.38;;
40286;SDS011;25998;46.604;13.610;2023-02-18T09:29:51;13.45;;;8.50;;
40286;SDS011;25998;46.604;13.610;2023-02-18T09:33:02;16.20;;;9.50;;
40286;SDS011;25998;46.604;13.610;2023-02-18T09:36:13;21.20;;;10.32;;
40286;SDS011;25998;46.604;13.610;2023-02-18T09:39:25;18.10;;;10.38;;
40286;SDS011;25998;46.604;13.610;2023-02-18T09:42:36;17.80;;;11.10;;
40286;SDS011;25998;46.604;13.610;2023-02-18T09:45:46;27.42;;;10.48;;
40286;SDS011;25998;46.604;13.610;2023-02-18T09:49:00;40.67;;;11.30;;
40286;SDS011;25998;46.604;13.610;2023-02-18T09:52:21;34.60;;;10.38;;
40286;SDS011;25998;46.604;13.610;2023-02-18T09:55:40;33.83;;;11.25;;
40286;SDS011;25998;46.604;13.610;2023-02-18T09:58:51;18.17;;;8.77;;
40286;SDS011;25998;46.604;13.610;2023-02-18T10:02:05;32.53;;;9.90;;
40286;SDS011;25998;46.604;13.610;2023-02-18T10:05:22;22.63;;;9.77;;
40286;SDS011;25998;46.604;13.610;2023-02-18T10:08:35;14.88;;;10.35;;
40286;SDS011;25998;46.604;13.610;2023-02-18T10:11:51;50.40;;;12.60;;
40286;SDS011;25998;46.604;13.610;2023-02-18T10:15:06;34.92;;;12.18;;
40286;SDS011;25998;46.604;13.610;2023-02-18T10:21:40;37.80;;;11.13;;
40286;SDS011;25998;46.604;13.610;2023-02-18T10:24:53;36.38;;;10.88;;
40286;SDS011;25998;46.604;13.610;2023-02-18T10:28:07;60.15;;;14.77;;
40286;SDS011;25998;46.604;13.610;2023-02-18T10:31:39;20.10;;;9.98;;
40286;SDS011;25998;46.604;13.610;2023-02-18T10:42:26;19.23;;;12.60;;
40286;SDS011;25998;46.604;13.610;2023-02-18T10:46:06;16.63;;;11.70;;
40286;SDS011;25998;46.604;13.610;2023-02-18T10:53:07;35.70;;;12.95;;
40286;SDS011;25998;46.604;13.610;2023-02-18T11:03:37;16.02;;;9.70;;
40286;SDS011;25998;46.604;13.610;2023-02-18T11:06:54;29.30;;;10.55;;
40286;SDS011;25998;46.604;13.610;2023-02-18T11:10:24;22.38;;;12.57;;
40286;SDS011;25998;46.604;13.610;2023-02-18T11:13:38;16.65;;;11.45;;
40286;SDS011;25998;46.604;13.610;2023-02-18T11:16:52;17.08;;;12.05;;
40286;SDS011;25998;46.604;13.610;2023-02-18T11:20:20;22.08;;;12.45;;
40286;SDS011;25998;46.604;13.610;2023-02-18T11:23:44;17.52;;;11.88;;
40286;SDS011;25998;46.604;13.610;2023-02-18T11:27:07;33.03;;;13.25;;
40286;SDS011;25998;46.604;13.610;2023-02-18T11:30:36;39.78;;;12.85;;
40286;SDS011;25998;46.604;13.610;2023-02-18T11:33:52;17.95;;;12.05;;
40286;SDS011;25998;46.604;13.610;2023-02-18T11:37:16;17.83;;;11.77;;
40286;SDS011;25998;46.604;13.610;2023-02-18T11:40:33;16.00;;;11.32;;
40286;SDS011;25998;46.604;13.610;2023-02-18T11:43:50;19.70;;;11.70;;
40286;SDS011;25998;46.604;13.610;2023-02-18T11:50:19;27.80;;;12.02;;
40286;SDS011;25998;46.604;13.610;2023-02-18T11:53:33;52.33;;;15.52;;
40286;SDS011;25998;46.604;13.610;2023-02-18T11:56:53;22.80;;;13.02;;
40286;SDS011;25998;46.604;13.610;2023-02-18T12:00:15;17.35;;;11.68;;
40286;SDS011;25998;46.604;13.610;2023-02-18T12:06:51;21.17;;;14.32;;
40286;SDS011;25998;46.604;13.610;2023-02-18T12:10:29;18.80;;;12.07;;
40286;SDS011;25998;46.604;13.610;2023-02-18T12:13:50;15.57;;;11.05;;
40286;SDS011;25998;46.604;13.610;2023-02-18T12:20:53;16.45;;;12.32;;
40286;SDS011;25998;46.604;13.610;2023-02-18T12:24:15;17.50;;;11.52;;
40286;SDS011;25998;46.604;13.610;2023-02-18T12:27:34;32.20;;;14.70;;
40286;SDS011;25998;46.604;13.610;2023-02-18T12:31:09;59.40;;;16.73;;
40286;SDS011;25998;46.604;13.610;2023-02-18T12:34:40;39.38;;;14.82;;
40286;SDS011;25998;46.604;13.610;2023-02-18T12:38:24;31.02;;;13.88;;
40286;SDS011;25998;46.604;13.610;2023-02-18T12:45:59;21.67;;;11.13;;
40286;SDS011;25998;46.604;13.610;2023-02-18T12:49:22;59.78;;;14.40;;
40286;SDS011;25998;46.604;13.610;2023-02-18T13:03:17;26.00;;;13.32;;
40286;SDS011;25998;46.604;13.610;2023-02-18T13:07:04;21.13;;;13.98;;
40286;SDS011;25998;46.604;13.610;2023-02-18T13:14:12;21.08;;;13.43;;
40286;SDS011;25998;46.604;13.610;2023-02-18T13:17:34;19.90;;;12.88;;
40286;SDS011;25998;46.604;13.610;2023-02-18T13:20:48;19.10;;;13.45;;
40286;SDS011;25998;46.604;13.610;2023-02-18T13:24:13;19.30;;;13.00;;
40286;SDS011;25998;46.604;13.610;2023-02-18T13:31:08;20.67;;;14.48;;
40286;SDS011;25998;46.604;13.610;2023-02-18T13:42:35;18.98;;;12.52;;
40286;SDS011;25998;46.604;13.610;2023-02-18T13:49:35;27.70;;;13.68;;
40286;SDS011;25998;46.604;13.610;2023-02-18T13:52:49;48.85;;;17.27;;
40286;SDS011;25998;46.604;13.610;2023-02-18T13:56:09;24.48;;;14.40;;
40286;SDS011;25998;46.604;13.610;2023-02-18T14:03:04;21.77;;;13.60;;
40286;SDS011;25998;46.604;13.610;2023-02-18T14:10:33;39.33;;;14.15;;
40286;SDS011;25998;46.604;13.610;2023-02-18T14:13:51;39.85;;;15.00;;
40286;SDS011;25998;46.604;13.610;2023-02-18T14:17:28;24.10;;;11.90;;
40286;SDS011;25998;46.604;13.610;2023-02-18T14:20:42;35.92;;;12.25;;
40286;SDS011;25998;46.604;13.610;2023-02-18T14:24:02;26.73;;;14.17;;
40286;SDS011;25998;46.604;13.610;2023-02-18T14:27:16;74.30;;;19.65;;
40286;SDS011;25998;46.604;13.610;2023-02-18T14:30:39;40.15;;;16.80;;
40286;SDS011;25998;46.604;13.610;2023-02-18T14:44:32;24.13;;;14.18;;
40286;SDS011;25998;46.604;13.610;2023-02-18T14:51:24;29.63;;;15.00;;
40286;SDS011;25998;46.604;13.610;2023-02-18T14:54:51;47.47;;;17.92;;
40286;SDS011;25998;46.604;13.610;2023-02-18T14:58:07;37.63;;;16.42;;
40286;SDS011;25998;46.604;13.610;2023-02-18T15:04:41;32.40;;;15.63;;
40286;SDS011;25998;46.604;13.610;2023-02-18T15:11:05;29.38;;;17.10;;
40286;SDS011;25998;46.604;13.610;2023-02-18T15:14:22;53.53;;;19.15;;
40286;SDS011;25998;46.604;13.610;2023-02-18T15:17:36;62.25;;;21.40;;
40286;SDS011;25998;46.604;13.610;2023-02-18T15:20:58;26.13;;;17.48;;
40286;SDS011;25998;46.604;13.610;2023-02-18T15:24:17;31.13;;;17.60;;
40286;SDS011;25998;46.604;13.610;2023-02-18T15:27:36;33.75;;;17.33;;
40286;SDS011;25998;46.604;13.610;2023-02-18T15:30:59;43.40;;;17.13;;
40286;SDS011;25998;46.604;13.610;2023-02-18T15:37:52;26.02;;;16.27;;
40286;SDS011;25998;46.604;13.610;2023-02-18T15:41:28;39.55;;;16.83;;
40286;SDS011;25998;46.604;13.610;2023-02-18T15:44:44;27.15;;;15.65;;
40286;SDS011;25998;46.604;13.610;2023-02-18T15:48:00;25.90;;;14.13;;
40286;SDS011;25998;46.604;13.610;2023-02-18T15:51:24;23.08;;;14.35;;
40286;SDS011;25998;46.604;13.610;2023-02-18T15:54:40;23.10;;;14.75;;
40286;SDS011;25998;46.604;13.610;2023-02-18T15:58:03;23.83;;;13.48;;
40286;SDS011;25998;46.604;13.610;2023-02-18T16:01:25;27.00;;;13.98;;
40286;SDS011;25998;46.604;13.610;2023-02-18T16:04:39;35.85;;;16.00;;
40286;SDS011;25998;46.604;13.610;2023-02-18T16:07:52;23.10;;;12.90;;
40286;SDS011;25998;46.604;13.610;2023-02-18T16:14:56;17.83;;;10.55;;
40286;SDS011;25998;46.604;13.610;2023-02-18T16:21:55;17.67;;;11.80;;
40286;SDS011;25998;46.604;13.610;2023-02-18T16:25:17;30.67;;;13.07;;
40286;SDS011;25998;46.604;13.610;2023-02-18T16:28:35;19.25;;;12.27;;
40286;SDS011;25998;46.604;13.610;2023-02-18T16:31:51;18.75;;;12.30;;
40286;SDS011;25998;46.604;13.610;2023-02-18T16:35:05;21.60;;;12.40;;
40286;SDS011;25998;46.604;13.610;2023-02-18T16:38:21;25.23;;;13.05;;
40286;SDS011;25998;46.604;13.610;2023-02-18T16:41:39;18.70;;;12.18;;
40286;SDS011;25998;46.604;13.610;2023-02-18T16:44:55;23.25;;;12.50;;
40286;SDS011;25998;46.604;13.610;2023-02-18T16:48:06;21.52;;;11.70;;
40286;SDS011;25998;46.604;13.610;2023-02-18T16:51:41;21.98;;;11.77;;
40286;SDS011;25998;46.604;13.610;2023-02-18T16:54:57;17.85;;;11.10;;
40286;SDS011;25998;46.604;13.610;2023-02-18T16:58:13;16.50;;;10.00;;
40286;SDS011;25998;46.604;13.610;2023-02-18T17:04:42;16.95;;;10.57;;
40286;SDS011;25998;46.604;13.610;2023-02-18T17:08:16;18.75;;;11.38;;
40286;SDS011;25998;46.604;13.610;2023-02-18T17:11:34;18.20;;;10.65;;
40286;SDS011;25998;46.604;13.610;2023-02-18T17:14:46;18.90;;;12.23;;
40286;SDS011;25998;46.604;13.610;2023-02-18T17:17:57;19.38;;;10.93;;
40286;SDS011;25998;46.604;13.610;2023-02-18T17:21:14;21.73;;;11.55;;
40286;SDS011;25998;46.604;13.610;2023-02-18T17:24:35;20.73;;;12.93;;
40286;SDS011;25998;46.604;13.610;2023-02-18T17:27:59;29.98;;;17.40;;
40286;SDS011;25998;46.604;13.610;2023-02-18T17:31:16;20.48;;;13.10;;
40286;SDS011;25998;46.604;13.610;2023-02-18T17:34:32;17.17;;;10.38;;
40286;SDS011;25998;46.604;13.610;2023-02-18T17:37:50;16.17;;;9.05;;
40286;SDS011;25998;46.604;13.610;2023-02-18T17:44:36;15.48;;;8.88;;
40286;SDS011;25998;46.604;13.610;2023-02-18T17:48:00;14.48;;;8.57;;
40286;SDS011;25998;46.604;13.610;2023-02-18T17:51:24;15.63;;;9.52;;
40286;SDS011;25998;46.604;13.610;2023-02-18T17:54:48;14.60;;;8.15;;
40286;SDS011;25998;46.604;13.610;2023-02-18T17:58:08;16.20;;;9.65;;
40286;SDS011;25998;46.604;13.610;2023-02-18T18:01:23;17.67;;;11.25;;
40286;SDS011;25998;46.604;13.610;2023-02-18T18:04:37;17.58;;;9.70;;
40286;SDS011;25998;46.604;13.610;2023-02-18T18:07:48;19.15;;;10.88;;
40286;SDS011;25998;46.604;13.610;2023-02-18T18:11:00;17.83;;;10.27;;
40286;SDS011;25998;46.604;13.610;2023-02-18T18:14:14;18.83;;;11.10;;
40286;SDS011;25998;46.604;13.610;2023-02-18T18:17:31;17.48;;;11.60;;
40286;SDS011;25998;46.604;13.610;2023-02-18T18:20:43;20.77;;;11.63;;
40286;SDS011;25998;46.604;13.610;2023-02-18T18:24:00;20.92;;;11.55;;
40286;SDS011;25998;46.604;13.610;2023-02-18T18:27:14;20.80;;;11.77;;
40286;SDS011;25998;46.604;13.610;2023-02-18T18:30:37;19.75;;;11.57;;
40286;SDS011;25998;46.604;13.610;2023-02-18T18:33:52;19.65;;;10.55;;
40286;SDS011;25998;46.604;13.610;2023-02-18T18:37:03;21.33;;;11.05;;
40286;SDS011;25998;46.604;13.610;2023-02-18T18:40:29;16.75;;;10.13;;
40286;SDS011;25998;46.604;13.610;2023-02-18T18:43:43;22.73;;;12.90;;
40286;SDS011;25998;46.604;13.610;2023-02-18T18:46:56;20.85;;;11.45;;
40286;SDS011;25998;46.604;13.610;2023-02-18T18:50:07;20.90;;;11.82;;
40286;SDS011;25998;46.604;13.610;2023-02-18T18:53:23;20.40;;;11.38;;
40286;SDS011;25998;46.604;13.610;2023-02-18T18:56:42;18.35;;;11.48;;
40286;SDS011;25998;46.604;13.610;2023-02-18T18:59:53;20.80;;;11.55;;
40286;SDS011;25998;46.604;13.610;2023-02-18T19:03:11;18.95;;;10.85;;
40286;SDS011;25998;46.604;13.610;2023-02-18T19:06:22;20.13;;;12.27;;
40286;SDS011;25998;46.604;13.610;2023-02-18T19:09:36;14.65;;;9.68;;
40286;SDS011;25998;46.604;13.610;2023-02-18T19:12:50;20.15;;;12.75;;
40286;SDS011;25998;46.604;13.610;2023-02-18T19:16:17;20.55;;;12.57;;
40286;SDS011;25998;46.604;13.610;2023-02-18T19:19:31;19.98;;;10.85;;
40286;SDS011;25998;46.604;13.610;2023-02-18T19:22:42;20.40;;;11.38;;
40286;SDS011;25998;46.604;13.610;2023-02-18T19:25:53;21.25;;;12.25;;
40286;SDS011;25998;46.604;13.610;2023-02-18T19:29:08;17.38;;;10.15;;
40286;SDS011;25998;46.604;13.610;2023-02-18T19:32:19;19.25;;;10.95;;
40286;SDS011;25998;46.604;13.610;2023-02-18T19:35:30;16.15;;;9.70;;
40286;SDS011;25998;46.604;13.610;2023-02-18T19:38:49;14.95;;;9.18;;
40286;SDS011;25998;46.604;13.610;2023-02-18T19:42:05;13.85;;;9.25;;
40286;SDS011;25998;46.604;13.610;2023-02-18T19:45:16;14.57;;;9.07;;
40286;SDS011;25998;46.604;13.610;2023-02-18T19:48:31;17.25;;;9.60;;
40286;SDS011;25998;46.604;13.610;2023-02-18T19:51:42;19.30;;;10.70;;
40286;SDS011;25998;46.604;13.610;2023-02-18T19:54:56;16.30;;;9.15;;
40286;SDS011;25998;46.604;13.610;2023-02-18T19:58:09;14.02;;;8.65;;
40286;SDS011;25998;46.604;13.610;2023-02-18T20:01:20;15.07;;;7.55;;
40286;SDS011;25998;46.604;13.610;2023-02-18T20:04:34;17.58;;;9.10;;
40286;SDS011;25998;46.604;13.610;2023-02-18T20:07:47;15.70;;;9.10;;
40286;SDS011;25998;46.604;13.610;2023-02-18T20:10:58;12.80;;;7.90;;
40286;SDS011;25998;46.604;13.610;2023-02-18T20:14:17;14.75;;;8.68;;
40286;SDS011;25998;46.604;13.610;2023-02-18T20:17:38;15.07;;;9.55;;
40286;SDS011;25998;46.604;13.610;2023-02-18T20:20:54;16.50;;;9.50;;
40286;SDS011;25998;46.604;13.610;2023-02-18T20:24:10;17.02;;;10.13;;
40286;SDS011;25998;46.604;13.610;2023-02-18T20:27:31;16.90;;;11.23;;
40286;SDS011;25998;46.604;13.610;2023-02-18T20:30:42;18.77;;;10.38;;
40286;SDS011;25998;46.604;13.610;2023-02-18T20:33:56;14.70;;;9.48;;
40286;SDS011;25998;46.604;13.610;2023-02-18T20:37:10;19.88;;;11.75;;
40286;SDS011;25998;46.604;13.610;2023-02-18T20:40:21;19.95;;;12.07;;
40286;SDS011;25998;46.604;13.610;2023-02-18T20:43:32;15.43;;;9.02;;
40286;SDS011;25998;46.604;13.610;2023-02-18T20:46:47;13.88;;;9.30;;
40286;SDS011;25998;46.604;13.610;2023-02-18T20:49:58;15.63;;;9.23;;
40286;SDS011;25998;46.604;13.610;2023-02-18T20:53:14;16.88;;;10.70;;
40286;SDS011;25998;46.604;13.610;2023-02-18T20:56:28;16.42;;;9.07;;
40286;SDS011;25998;46.604;13.610;2023-02-18T20:59:40;17.60;;;9.95;;
40286;SDS011;25998;46.604;13.610;2023-02-18T21:02:55;16.90;;;9.98;;
40286;SDS011;25998;46.604;13.610;2023-02-18T21:06:07;18.48;;;10.52;;
40286;SDS011;25998;46.604;13.610;2023-02-18T21:09:28;18.73;;;10.15;;
40286;SDS011;25998;46.604;13.610;2023-02-18T21:12:39;17.98;;;9.95;;
40286;SDS011;25998;46.604;13.610;2023-02-18T21:15:54;19.85;;;10.73;;
40286;SDS011;25998;46.604;13.610;2023-02-18T21:19:10;16.05;;;9.30;;
40286;SDS011;25998;46.604;13.610;2023-02-18T21:22:22;18.63;;;10.38;;
40286;SDS011;25998;46.604;13.610;2023-02-18T21:25:34;19.48;;;10.80;;
40286;SDS011;25998;46.604;13.610;2023-02-18T21:28:47;18.80;;;10.27;;
40286;SDS011;25998;46.604;13.610;2023-02-18T21:31:59;17.65;;;10.40;;